Inverness Airport

EGPE · Scotland, 英国

罗盘
风向 的 风向 240° Inverness Airport 5/23
风: 6 kt, 2 beaufort

6 kt

1 kt
改变
0 ft 1.000 2.000 3.000 4.000 5.000
FEW 1.500
SCT 3.500
METAR EGPE 092020Z 24006KT 9999 FEW015 SCT035 01/M01 Q1006

METAR Inverness Airport - EGPE/INV

Inverness Airport是,英国中的中型机场。 该机场有2条跑道: 5/23 和 11/29. 该领域的国际民航组织标志是EGPE 它的国际航空运输协会代码是INV.

这份报告是针对2022年12月9日 20:20, 当地时间在Inverness Airport进行的。

机场观察

风向为240°,速度为6 kt。

可见度为10 km 或者更多。

有几云在1.500 ft的高度 和 疏云,零星散落的云朵在3.500 ft的高度。 没有观察到天花板。

温度为1 °C,阵风为-4 °C。 露点为-1 °C,相对湿度为87%。 海平面上的气压为1006 hPa (QNH)。

白天

今天,太阳从08:45升起,在15:31降落。 这适用于Inverness Airport,世界夏令时可能有所不同。 当地时间与世界标准时间之间的时差为+0 小时。 当前,没有夏令时有效。

公司介绍

在这个机场,你可以找到飞行学校。 本场上唯一已知的公司是Highland Aviation。

体会

到Vliegles.nl去找飞行课程,跳伞和其他飞行体验。 浏览页面,了解Inverness Airport附近所有可用的活动。 你也可以使用搜索功能来寻找你所在地附近的特定飞行课程、跳伞或其他飞行体验。

跑道

Id 标题 侧风 逆风 侧风 %
5/23 049°-229° 1 kt 6 kt 19 %
11/29 110°-290° 5 kt 4 kt 77 %

逆风成分最大的方向会被突出显示,并用于横风计算。 这并不一定意味着这个方向在使用。

乌云

1.500 ft FEW 几云
3.500 ft SCT 疏云,零星散落的云朵

温度 & 天气

温度 1 °C
露点 -1 °C
相对湿度 87%
风寒 -4 °C
Kp-index 2 (0-9)

白天

日出
08:45 (12:10)
中午
12:08
日落
15:31

小工具

你想在你的网站上有一个关于Inverness Airport的当前航空天气(METAR)的小部件吗?

显示HTML代码

我们和第三方通过cookies跟踪您在我们网站上的互联网行为。如果你继续,我们认为你同意我们的饼干政策